createdAt,value
2019-02-24T00:00:47.029Z,70.36
2019-02-24T00:03:12.779Z,69.80
2019-02-24T00:05:38.547Z,70.30
2019-02-24T00:08:04.301Z,70.49
2019-02-24T00:10:30.067Z,70.54
2019-02-24T00:12:55.823Z,70.07
2019-02-24T00:15:21.590Z,70.13
2019-02-24T00:17:47.599Z,70.11
2019-02-24T00:20:13.349Z,70.63
2019-02-24T00:22:39.116Z,70.65
2019-02-24T00:25:04.864Z,70.61
2019-02-24T00:27:30.625Z,70.97
2019-02-24T00:29:56.370Z,71.07
2019-02-24T00:32:22.130Z,71.34
2019-02-24T00:34:47.872Z,71.26
2019-02-24T00:37:13.637Z,71.32
2019-02-24T00:39:39.387Z,71.02
2019-02-24T00:42:05.159Z,71.47
2019-02-24T00:44:30.912Z,71.71
2019-02-24T00:46:56.673Z,71.49
2019-02-24T00:49:22.423Z,72.22
2019-02-24T00:51:48.187Z,72.72
2019-02-24T00:54:13.934Z,72.57
2019-02-24T00:56:39.728Z,72.32
2019-02-24T00:59:05.473Z,72.42
2019-02-24T01:01:31.238Z,72.74
2019-02-24T01:03:57.002Z,72.28
2019-02-24T01:06:22.762Z,72.44
2019-02-24T01:08:48.530Z,73.14
2019-02-24T01:11:14.266Z,73.13
2019-02-24T01:13:40.041Z,73.04
2019-02-24T01:16:05.784Z,72.74
2019-02-24T01:18:31.544Z,72.38
2019-02-24T01:20:57.297Z,72.61
2019-02-24T01:23:23.056Z,72.21
2019-02-24T01:25:48.802Z,72.61
2019-02-24T01:28:14.566Z,72.96
2019-02-24T01:30:40.321Z,72.73
2019-02-24T01:33:06.085Z,73.13
2019-02-24T01:35:31.822Z,73.22
2019-02-24T01:37:57.586Z,73.66
2019-02-24T01:40:23.340Z,74.03
2019-02-24T01:42:49.099Z,74.08
2019-02-24T01:45:14.845Z,73.91
2019-02-24T01:47:40.628Z,73.88
2019-02-24T01:50:07.375Z,73.95
2019-02-24T01:52:33.117Z,74.21
2019-02-24T01:54:58.878Z,73.99
2019-02-24T01:57:24.626Z,74.01
2019-02-24T01:59:50.392Z,73.86
2019-02-24T02:02:16.151Z,74.03
2019-02-24T02:04:41.909Z,74.82
2019-02-24T02:07:07.661Z,74.80
2019-02-24T02:09:33.429Z,74.52
2019-02-24T02:11:59.178Z,74.44
2019-02-24T02:14:24.944Z,74.60
2019-02-24T02:16:50.695Z,75.58
2019-02-24T02:19:16.460Z,76.12
2019-02-24T02:21:42.215Z,75.87
2019-02-24T02:24:07.977Z,76.02
2019-02-24T02:26:33.722Z,76.56
2019-02-24T02:28:59.493Z,76.15
2019-02-24T02:31:25.238Z,76.01
2019-02-24T02:33:51.033Z,75.71
2019-02-24T02:36:16.779Z,76.62
2019-02-24T02:38:42.539Z,76.48
2019-02-24T02:41:08.292Z,76.05
2019-02-24T02:43:34.563Z,75.76
2019-02-24T02:46:00.588Z,75.57
2019-02-24T02:48:26.505Z,75.29
2019-02-24T02:50:52.267Z,75.38
2019-02-24T02:53:18.301Z,75.66
2019-02-24T02:55:44.040Z,75.37
2019-02-24T02:58:09.790Z,75.67
2019-02-24T03:00:35.712Z,75.35
2019-02-24T03:03:01.464Z,75.00
2019-02-24T03:05:27.465Z,75.27
2019-02-24T03:08:06.904Z,75.49
2019-02-24T03:10:33.178Z,75.05
2019-02-24T03:12:58.924Z,74.98
2019-02-24T03:15:24.698Z,75.05
2019-02-24T03:17:50.449Z,75.88
2019-02-24T03:20:16.947Z,75.64
2019-02-24T03:22:42.688Z,75.50
2019-02-24T03:25:08.470Z,75.20
2019-02-24T03:27:34.207Z,74.92
2019-02-24T03:30:00.240Z,74.77
2019-02-24T03:32:26.370Z,74.92
2019-02-24T03:34:52.131Z,74.46
2019-02-24T03:37:17.900Z,75.92
2019-02-24T03:39:43.648Z,76.34
2019-02-24T03:42:09.407Z,75.75
2019-02-24T03:44:36.087Z,76.06
2019-02-24T03:47:02.880Z,76.07
2019-02-24T03:49:28.582Z,76.33
2019-02-24T03:51:54.512Z,76.10
2019-02-24T03:54:20.260Z,76.41
2019-02-24T03:56:46.015Z,76.39
2019-02-24T03:59:15.142Z,76.17
2019-02-24T04:01:39.443Z,76.97
2019-02-24T04:04:05.180Z,77.40
2019-02-24T04:06:30.947Z,77.22
2019-02-24T04:08:56.718Z,76.45
2019-02-24T04:11:22.483Z,76.00
2019-02-24T04:13:48.234Z,76.00
2019-02-24T04:16:14.000Z,76.47
2019-02-24T04:18:39.751Z,76.32
2019-02-24T04:21:05.498Z,75.79
2019-02-24T04:23:31.273Z,75.71
2019-02-24T04:25:57.015Z,75.94
2019-02-24T04:28:22.782Z,76.24
2019-02-24T04:30:48.526Z,75.84
2019-02-24T04:33:14.286Z,75.70
2019-02-24T04:35:40.027Z,76.95
2019-02-24T04:38:05.785Z,77.41
2019-02-24T04:40:31.527Z,77.67
2019-02-24T04:42:57.283Z,77.47
2019-02-24T04:45:23.029Z,78.04
2019-02-24T04:47:48.788Z,77.85
2019-02-24T04:50:14.534Z,77.23
2019-02-24T04:52:40.299Z,77.62
2019-02-24T04:55:06.055Z,78.63
2019-02-24T04:57:31.821Z,78.63
2019-02-24T04:59:57.571Z,77.53
2019-02-24T05:02:23.351Z,78.50
2019-02-24T05:04:49.097Z,78.77
2019-02-24T05:07:14.864Z,78.53
2019-02-24T05:09:40.607Z,78.11
2019-02-24T05:12:06.361Z,77.71
2019-02-24T05:14:32.110Z,77.33
2019-02-24T05:16:57.866Z,77.14
2019-02-24T05:19:23.624Z,77.40
2019-02-24T05:21:49.376Z,76.90
2019-02-24T05:24:15.138Z,76.95
2019-02-24T05:26:40.889Z,76.96
2019-02-24T05:29:06.655Z,77.32
2019-02-24T05:31:32.401Z,77.44
2019-02-24T05:33:58.170Z,77.84
2019-02-24T05:36:23.936Z,77.54
2019-02-24T05:38:49.700Z,77.41
2019-02-24T05:41:15.443Z,77.53
2019-02-24T05:43:41.202Z,78.07
2019-02-24T05:46:06.945Z,77.62
2019-02-24T05:48:33.690Z,77.63
2019-02-24T05:50:59.545Z,77.81
2019-02-24T05:53:25.311Z,77.89
2019-02-24T05:55:51.095Z,78.80
2019-02-24T05:58:16.833Z,78.94
2019-02-24T06:00:42.599Z,79.10
2019-02-24T06:03:08.344Z,79.10
2019-02-24T06:05:34.115Z,79.25
2019-02-24T06:07:59.863Z,78.72
2019-02-24T06:10:25.630Z,79.34
2019-02-24T06:12:51.377Z,79.73
2019-02-24T06:15:17.144Z,79.09
2019-02-24T06:17:42.891Z,78.76
2019-02-24T06:20:08.647Z,78.63
2019-02-24T06:22:34.396Z,77.83
2019-02-24T06:25:00.210Z,77.50
2019-02-24T06:27:26.018Z,77.06
2019-02-24T06:29:51.785Z,76.69
2019-02-24T06:32:17.525Z,77.06
2019-02-24T06:34:43.283Z,78.45
2019-02-24T06:37:09.024Z,78.41
2019-02-24T06:39:34.783Z,78.28
2019-02-24T06:42:00.527Z,78.57
2019-02-24T06:44:26.292Z,78.92
2019-02-24T06:46:52.044Z,78.99
2019-02-24T06:49:17.823Z,78.52
2019-02-24T06:51:43.567Z,78.25
2019-02-24T06:54:09.309Z,77.93
2019-02-24T06:56:35.064Z,78.80
2019-02-24T06:59:00.810Z,78.83
2019-02-24T07:01:26.584Z,78.50
2019-02-24T07:03:52.328Z,78.76
2019-02-24T07:06:18.100Z,79.17
2019-02-24T07:08:43.842Z,79.65
2019-02-24T07:11:09.606Z,79.07
2019-02-24T07:13:35.354Z,79.24
2019-02-24T07:16:01.125Z,79.39
2019-02-24T07:18:26.870Z,79.55
2019-02-24T07:20:52.626Z,79.15
2019-02-24T07:23:18.391Z,79.13
2019-02-24T07:25:44.153Z,78.89
2019-02-24T07:28:09.897Z,78.70
2019-02-24T07:30:35.657Z,77.94
2019-02-24T07:33:01.402Z,77.74
2019-02-24T07:35:27.141Z,77.10
2019-02-24T07:37:52.906Z,77.71
2019-02-24T07:40:18.652Z,77.68
2019-02-24T07:42:44.404Z,77.53
2019-02-24T07:45:10.161Z,76.75
2019-02-24T07:47:35.926Z,75.84
2019-02-24T07:50:01.763Z,74.72
2019-02-24T07:52:27.529Z,74.21
2019-02-24T07:54:53.274Z,74.56
2019-02-24T07:57:19.027Z,74.28
2019-02-24T07:59:44.788Z,73.21
2019-02-24T08:02:10.560Z,72.76
2019-02-24T08:04:36.312Z,72.11
2019-02-24T08:07:02.082Z,71.23
2019-02-24T08:09:27.826Z,71.70
2019-02-24T08:11:53.584Z,71.23
2019-02-24T08:14:19.339Z,71.20
2019-02-24T08:16:45.105Z,70.41
2019-02-24T08:19:10.848Z,70.44
2019-02-24T08:21:36.614Z,69.97
2019-02-24T08:24:02.366Z,69.03
2019-02-24T08:26:28.124Z,68.77
2019-02-24T08:28:53.882Z,68.23
2019-02-24T08:31:19.676Z,67.68
2019-02-24T08:33:45.424Z,66.96
2019-02-24T08:36:11.164Z,67.47
2019-02-24T08:38:36.923Z,68.71
2019-02-24T08:41:02.690Z,67.26
2019-02-24T08:43:28.456Z,65.78
2019-02-24T08:45:54.209Z,66.27
2019-02-24T08:48:19.997Z,66.45
2019-02-24T08:50:45.738Z,66.23
2019-02-24T08:53:11.496Z,65.60
2019-02-24T08:55:37.245Z,65.37
2019-02-24T08:58:02.996Z,65.13
2019-02-24T09:00:28.746Z,65.15
2019-02-24T09:02:54.525Z,64.00
2019-02-24T09:05:20.280Z,63.37
2019-02-24T09:07:46.039Z,64.59
2019-02-24T09:10:11.784Z,63.59
2019-02-24T09:12:37.536Z,64.50
2019-02-24T09:15:09.288Z,64.27
2019-02-24T09:17:35.048Z,63.83
2019-02-24T09:20:00.807Z,63.69
2019-02-24T09:22:26.560Z,64.14
2019-02-24T09:24:52.299Z,64.57
2019-02-24T09:27:18.058Z,64.22
2019-02-24T09:29:43.805Z,64.01
2019-02-24T09:32:09.592Z,63.98
2019-02-24T09:34:35.339Z,63.24
2019-02-24T09:37:01.086Z,63.29
2019-02-24T09:39:26.844Z,64.22
2019-02-24T09:41:52.621Z,62.33
2019-02-24T09:44:18.379Z,60.88
2019-02-24T09:46:44.124Z,60.92
2019-02-24T09:49:09.881Z,60.25
2019-02-24T09:51:35.630Z,58.42
2019-02-24T09:54:01.386Z,56.93
2019-02-24T09:56:27.127Z,57.13
2019-02-24T09:58:52.951Z,57.09
2019-02-24T10:01:18.708Z,57.31
2019-02-24T10:03:44.472Z,55.49
2019-02-24T10:06:10.226Z,55.72
2019-02-24T10:08:35.984Z,56.42
2019-02-24T10:11:01.730Z,55.53
2019-02-24T10:13:27.490Z,54.83
2019-02-24T10:15:53.233Z,54.27
2019-02-24T10:18:18.986Z,54.46
2019-02-24T10:20:44.742Z,53.77
2019-02-24T10:23:10.489Z,54.57
2019-02-24T10:25:36.253Z,53.13
2019-02-24T10:28:01.999Z,53.22
2019-02-24T10:30:27.756Z,51.80
2019-02-24T10:32:53.505Z,51.51
2019-02-24T10:35:19.268Z,49.90
2019-02-24T10:37:45.050Z,50.79
2019-02-24T10:40:12.779Z,50.95
2019-02-24T10:42:38.535Z,50.62
2019-02-24T10:45:10.230Z,50.62
2019-02-24T10:47:35.993Z,51.57
2019-02-24T10:50:03.353Z,51.57
2019-02-24T10:52:30.685Z,51.56
2019-02-24T10:54:56.585Z,51.46
2019-02-24T10:57:22.358Z,51.46
2019-02-24T10:59:48.553Z,52.24
2019-02-24T11:02:14.319Z,51.92
2019-02-24T11:04:40.098Z,52.11
2019-02-24T11:07:05.857Z,51.36
2019-02-24T11:09:31.637Z,52.45
2019-02-24T11:11:57.388Z,51.96
2019-02-24T11:14:23.128Z,51.42
2019-02-24T11:16:48.884Z,52.15
2019-02-24T11:19:14.633Z,52.73
2019-02-24T11:21:40.401Z,51.00
2019-02-24T11:24:06.153Z,52.54
2019-02-24T11:26:31.909Z,50.33
2019-02-24T11:28:57.650Z,50.05
2019-02-24T11:31:23.411Z,49.70
2019-02-24T11:33:49.151Z,49.27
2019-02-24T11:36:14.912Z,50.17
2019-02-24T11:38:40.658Z,48.76
2019-02-24T11:41:06.417Z,50.69
2019-02-24T11:43:32.168Z,49.16
2019-02-24T11:45:57.932Z,49.26
2019-02-24T11:48:23.676Z,47.36
2019-02-24T11:50:49.449Z,47.78
2019-02-24T11:53:15.200Z,47.20
2019-02-24T11:55:41.607Z,47.69
2019-02-24T11:58:07.449Z,50.24
2019-02-24T12:00:33.195Z,48.37
2019-02-24T12:02:59.031Z,47.54
2019-02-24T12:05:24.778Z,47.20
2019-02-24T12:07:50.554Z,45.70
2019-02-24T12:10:16.294Z,47.90
2019-02-24T12:12:42.053Z,46.33
2019-02-24T12:15:10.208Z,45.72
2019-02-24T12:17:35.979Z,44.66
2019-02-24T12:20:01.832Z,44.66
2019-02-24T12:22:27.583Z,47.22
2019-02-24T12:24:53.331Z,45.07
2019-02-24T12:27:19.089Z,45.31
2019-02-24T12:29:44.841Z,43.54
2019-02-24T12:32:10.624Z,44.99
2019-02-24T12:34:36.393Z,44.36
2019-02-24T12:37:02.153Z,44.98
2019-02-24T12:39:27.900Z,45.11
2019-02-24T12:41:53.664Z,43.71
2019-02-24T12:44:19.412Z,45.87
2019-02-24T12:46:45.168Z,47.22
2019-02-24T12:49:10.912Z,46.02
2019-02-24T12:51:36.657Z,45.55
2019-02-24T12:54:02.417Z,46.26
2019-02-24T12:56:28.166Z,43.80
2019-02-24T12:58:53.925Z,45.75
2019-02-24T13:01:19.671Z,45.26
2019-02-24T13:03:45.443Z,45.37
2019-02-24T13:06:11.194Z,43.35
2019-02-24T13:08:36.961Z,45.84
2019-02-24T13:11:02.803Z,45.10
2019-02-24T13:13:28.561Z,40.63
2019-02-24T13:15:54.307Z,41.47
2019-02-24T13:18:20.065Z,41.58
2019-02-24T13:20:45.813Z,41.41
2019-02-24T13:23:11.571Z,42.71
2019-02-24T13:25:37.320Z,42.85
2019-02-24T13:28:03.082Z,41.74
2019-02-24T13:30:28.820Z,44.23
2019-02-24T13:32:54.581Z,42.08
2019-02-24T13:35:20.338Z,42.11
2019-02-24T13:37:46.130Z,41.48
2019-02-24T13:40:15.298Z,44.46
2019-02-24T13:42:41.043Z,43.78
2019-02-24T13:45:10.102Z,39.32
2019-02-24T13:47:35.846Z,38.56
2019-02-24T13:50:01.909Z,38.77
2019-02-24T13:52:27.659Z,39.42
2019-02-24T13:54:53.417Z,39.46
2019-02-24T13:57:19.163Z,39.06
2019-02-24T13:59:44.924Z,40.28
2019-02-24T14:02:10.685Z,39.86
2019-02-24T14:04:36.439Z,40.79
2019-02-24T14:07:02.187Z,40.46
2019-02-24T14:09:27.944Z,40.35
2019-02-24T14:11:53.684Z,42.21
2019-02-24T14:14:19.460Z,43.21
2019-02-24T14:16:45.216Z,43.07
2019-02-24T14:19:10.974Z,42.75
2019-02-24T14:21:36.715Z,41.00
2019-02-24T14:24:02.498Z,41.69
2019-02-24T14:26:28.243Z,42.90
2019-02-24T14:28:53.998Z,43.79
2019-02-24T14:31:19.776Z,44.04
2019-02-24T14:33:45.522Z,44.52
2019-02-24T14:36:11.284Z,44.46
2019-02-24T14:38:37.031Z,45.45
2019-02-24T14:41:02.795Z,44.93
2019-02-24T14:43:28.541Z,41.30
2019-02-24T14:45:54.295Z,41.98
2019-02-24T14:48:20.050Z,43.10
2019-02-24T14:50:45.797Z,42.57
2019-02-24T14:53:11.541Z,41.79
2019-02-24T14:55:37.309Z,41.56
2019-02-24T14:58:03.055Z,40.92
2019-02-24T15:00:28.811Z,41.32
2019-02-24T15:02:54.582Z,41.93
2019-02-24T15:05:20.375Z,41.40
2019-02-24T15:07:46.082Z,41.81
2019-02-24T15:10:19.837Z,42.85
2019-02-24T15:12:45.595Z,42.33
2019-02-24T15:15:16.295Z,42.33
2019-02-24T15:17:42.055Z,41.73
2019-02-24T15:20:10.811Z,41.88
2019-02-24T15:22:36.565Z,42.93
2019-02-24T15:25:04.727Z,43.61
2019-02-24T15:27:30.485Z,43.90
2019-02-24T15:29:56.231Z,45.52
2019-02-24T15:32:21.988Z,44.72
2019-02-24T15:34:47.728Z,45.25
2019-02-24T15:37:13.496Z,45.37
2019-02-24T15:39:39.239Z,46.16
2019-02-24T15:42:04.994Z,44.39
2019-02-24T15:44:30.743Z,41.68
2019-02-24T15:46:56.503Z,41.38
2019-02-24T15:49:22.258Z,41.43
2019-02-24T15:51:48.013Z,41.45
2019-02-24T15:54:13.756Z,41.33
2019-02-24T15:56:39.518Z,42.51
2019-02-24T15:59:05.272Z,43.30
2019-02-24T16:01:31.036Z,44.33
2019-02-24T16:03:56.805Z,45.27
2019-02-24T16:06:22.565Z,46.07
2019-02-24T16:08:48.311Z,46.17
2019-02-24T16:11:14.069Z,46.63
2019-02-24T16:13:39.845Z,45.45
2019-02-24T16:16:05.568Z,44.96
2019-02-24T16:18:31.314Z,45.70
2019-02-24T16:20:57.055Z,45.29
2019-02-24T16:23:22.815Z,44.92
2019-02-24T16:25:48.556Z,44.40
2019-02-24T16:28:14.314Z,44.85
2019-02-24T16:30:40.064Z,45.68
2019-02-24T16:33:10.640Z,46.37
2019-02-24T16:35:33.474Z,47.19
2019-02-24T16:37:59.237Z,48.13
2019-02-24T16:40:26.681Z,48.47
2019-02-24T16:42:52.448Z,49.22
2019-02-24T16:45:18.197Z,50.02
2019-02-24T16:47:44.056Z,50.71
2019-02-24T16:50:13.596Z,50.93
2019-02-24T16:52:39.369Z,53.14
2019-02-24T16:55:08.020Z,53.14
2019-02-24T16:57:33.776Z,53.75
2019-02-24T16:59:59.525Z,54.54
2019-02-24T17:02:25.293Z,55.42
2019-02-24T17:04:51.036Z,55.50
2019-02-24T17:07:16.842Z,56.24
2019-02-24T17:09:42.589Z,56.14
2019-02-24T17:12:08.339Z,56.29
2019-02-24T17:14:34.100Z,56.00
2019-02-24T17:17:01.783Z,56.01
2019-02-24T17:19:27.520Z,56.31
2019-02-24T17:21:53.273Z,56.31
2019-02-24T17:24:19.030Z,57.09
2019-02-24T17:26:44.772Z,57.01
2019-02-24T17:29:10.535Z,57.06
2019-02-24T17:31:36.279Z,56.59
2019-02-24T17:34:02.036Z,56.77
2019-02-24T17:36:27.784Z,56.88
2019-02-24T17:38:53.539Z,56.47
2019-02-24T17:41:19.284Z,56.33
2019-02-24T17:43:45.062Z,56.93
2019-02-24T17:46:10.808Z,56.85
2019-02-24T17:48:36.720Z,57.43
2019-02-24T17:51:02.474Z,56.86
2019-02-24T17:53:28.235Z,57.76
2019-02-24T17:55:53.985Z,58.80
2019-02-24T17:58:19.731Z,58.74
2019-02-24T18:00:50.018Z,59.21
2019-02-24T18:03:15.791Z,59.29
2019-02-24T18:05:41.552Z,59.49
2019-02-24T18:08:07.295Z,60.22
2019-02-24T18:10:33.053Z,60.87
2019-02-24T18:12:58.795Z,61.15
2019-02-24T18:15:24.553Z,62.32
2019-02-24T18:17:50.296Z,62.25
2019-02-24T18:20:17.571Z,62.33
2019-02-24T18:22:43.326Z,62.48
2019-02-24T18:25:10.286Z,62.88
2019-02-24T18:27:36.033Z,62.80
2019-02-24T18:30:02.894Z,62.68
2019-02-24T18:32:28.645Z,63.45
2019-02-24T18:34:54.398Z,63.36
2019-02-24T18:37:20.146Z,63.94
2019-02-24T18:39:47.003Z,63.90
2019-02-24T18:42:12.710Z,64.42
2019-02-24T18:44:38.504Z,65.04
2019-02-24T18:47:04.320Z,65.13
2019-02-24T18:49:30.061Z,65.40
2019-02-24T18:51:55.823Z,66.77
2019-02-24T18:54:21.582Z,66.81
2019-02-24T18:56:47.362Z,66.87
2019-02-24T18:59:13.152Z,66.80
2019-02-24T19:01:38.998Z,66.91
2019-02-24T19:04:04.765Z,67.44
2019-02-24T19:06:38.756Z,67.46
2019-02-24T19:08:58.192Z,67.66
2019-02-24T19:11:23.971Z,67.96
2019-02-24T19:13:49.719Z,67.47
2019-02-24T19:16:15.477Z,67.54
2019-02-24T19:18:41.231Z,67.54
2019-02-24T19:21:06.990Z,67.39
2019-02-24T19:23:32.742Z,67.72
2019-02-24T19:25:58.528Z,67.85
2019-02-24T19:28:24.279Z,67.93
2019-02-24T19:30:50.042Z,68.62
2019-02-24T19:33:15.797Z,68.98
2019-02-24T19:35:41.545Z,68.90
2019-02-24T19:38:07.311Z,69.75
2019-02-24T19:40:33.053Z,69.86
2019-02-24T19:42:58.822Z,69.99
2019-02-24T19:45:24.671Z,70.07
2019-02-24T19:47:50.443Z,69.68
2019-02-24T19:50:16.479Z,69.95
2019-02-24T19:52:42.255Z,69.81
2019-02-24T19:55:09.599Z,69.59
2019-02-24T19:57:35.390Z,69.45
2019-02-24T20:00:01.233Z,69.30
2019-02-24T20:02:26.995Z,68.81
2019-02-24T20:04:52.953Z,69.05
2019-02-24T20:07:18.722Z,69.59
2019-02-24T20:09:44.474Z,69.38
2019-02-24T20:12:10.240Z,69.02
2019-02-24T20:14:35.995Z,69.26
2019-02-24T20:17:01.751Z,69.13
2019-02-24T20:19:27.504Z,69.40
2019-02-24T20:21:53.274Z,69.96
2019-02-24T20:24:19.030Z,69.85
2019-02-24T20:26:44.810Z,70.02
2019-02-24T20:29:10.557Z,70.07
2019-02-24T20:31:36.310Z,69.99
2019-02-24T20:34:02.067Z,71.14
2019-02-24T20:36:27.812Z,70.56
2019-02-24T20:38:53.568Z,70.65
2019-02-24T20:41:19.325Z,69.84
2019-02-24T20:43:45.103Z,70.77
2019-02-24T20:46:10.860Z,71.85
2019-02-24T20:48:36.631Z,71.85
2019-02-24T20:51:02.375Z,72.29
2019-02-24T20:53:28.225Z,72.04
2019-02-24T20:55:53.940Z,72.00
2019-02-24T20:58:19.687Z,72.03
2019-02-24T21:00:48.242Z,72.79
2019-02-24T21:03:14.068Z,72.55
2019-02-24T21:05:39.869Z,73.18
2019-02-24T21:08:05.630Z,73.31
2019-02-24T21:10:31.411Z,72.38
2019-02-24T21:12:57.204Z,72.64
2019-02-24T21:15:23.035Z,72.64
2019-02-24T21:17:48.794Z,73.41
2019-02-24T21:20:28.292Z,73.17
2019-02-24T21:22:54.056Z,74.03
2019-02-24T21:25:19.827Z,73.47
2019-02-24T21:27:45.683Z,73.10
2019-02-24T21:30:15.618Z,73.42
2019-02-24T21:32:41.467Z,73.50
2019-02-24T21:35:08.491Z,73.32
2019-02-24T21:37:34.239Z,73.72
2019-02-24T21:40:00.000Z,73.73
2019-02-24T21:42:25.746Z,73.55
2019-02-24T21:44:51.512Z,73.72
2019-02-24T21:47:17.268Z,74.07
2019-02-24T21:49:43.071Z,74.19
2019-02-24T21:52:08.820Z,74.83
2019-02-24T21:54:34.587Z,76.38
2019-02-24T21:57:00.340Z,75.87
2019-02-24T21:59:26.141Z,76.09
2019-02-24T22:01:51.879Z,76.10
2019-02-24T22:04:17.653Z,76.68
2019-02-24T22:06:43.397Z,75.56
2019-02-24T22:09:09.680Z,75.41
2019-02-24T22:11:35.409Z,75.26
2019-02-24T22:14:01.212Z,75.32
2019-02-24T22:16:26.961Z,75.46
2019-02-24T22:19:00.713Z,76.29
2019-02-24T22:21:26.799Z,76.83
2019-02-24T22:27:00.311Z,76.05
2019-02-24T22:29:26.204Z,75.76
2019-02-24T22:31:52.014Z,75.95
2019-02-24T22:34:17.966Z,76.59
2019-02-24T22:36:43.730Z,76.92
2019-02-24T22:39:09.477Z,76.49
2019-02-24T22:41:35.460Z,76.01
2019-02-24T22:44:01.373Z,76.02
2019-02-24T22:46:27.356Z,76.88
2019-02-24T22:48:53.104Z,77.47
2019-02-24T22:51:19.192Z,77.79
2019-02-24T22:53:45.046Z,78.05
2019-02-24T22:56:10.818Z,78.50
2019-02-24T22:58:36.567Z,77.97
2019-02-24T23:04:16.482Z,78.46
2019-02-24T23:06:42.240Z,78.02
2019-02-24T23:09:49.665Z,78.15
2019-02-24T23:12:15.528Z,77.87
2019-02-24T23:15:22.991Z,78.79
2019-02-24T23:17:48.731Z,78.88
2019-02-24T23:20:14.485Z,79.56
2019-02-24T23:22:40.253Z,78.71
2019-02-24T23:25:06.131Z,79.06
2019-02-24T23:27:31.869Z,79.38
2019-02-24T23:29:57.627Z,79.92
2019-02-24T23:32:23.380Z,80.12
2019-02-24T23:34:49.133Z,80.23
2019-02-24T23:37:14.916Z,80.12
2019-02-24T23:39:40.665Z,80.68
2019-02-24T23:42:06.433Z,80.70
2019-02-24T23:47:19.483Z,79.37
2019-02-24T23:49:45.241Z,79.11
2019-02-24T23:52:11.001Z,79.31
2019-02-24T23:54:36.749Z,79.39
2019-02-24T23:57:02.523Z,80.01
2019-02-24T23:59:28.270Z,80.90
